sensor_id;sensor_type;location;lat;lon;timestamp;temperature;humidity
7325;DHT22;3703;48.016;7.802;2022-11-23T01:43:14;8.00;99.90
7325;DHT22;3703;48.016;7.802;2022-11-23T01:48:55;7.90;99.90
7325;DHT22;3703;48.016;7.802;2022-11-23T01:51:46;8.00;99.90
7325;DHT22;3703;48.016;7.802;2022-11-23T01:57:36;8.00;99.90
7325;DHT22;3703;48.016;7.802;2022-11-23T02:06:07;8.00;99.90
7325;DHT22;3703;48.016;7.802;2022-11-23T02:20:11;8.00;99.90
7325;DHT22;3703;48.016;7.802;2022-11-23T02:26:11;8.00;99.90
7325;DHT22;3703;48.016;7.802;2022-11-23T02:29:05;8.00;99.90
7325;DHT22;3703;48.016;7.802;2022-11-23T02:43:23;8.00;99.90
7325;DHT22;3703;48.016;7.802;2022-11-23T03:05:51;7.90;99.90
7325;DHT22;3703;48.016;7.802;2022-11-23T03:17:04;8.10;99.90
7325;DHT22;3703;48.016;7.802;2022-11-23T04:00:04;7.70;99.90
7325;DHT22;3703;48.016;7.802;2022-11-23T06:48:46;5.70;99.90
7325;DHT22;3703;48.016;7.802;2022-11-23T07:02:51;5.60;99.90
7325;DHT22;3703;48.016;7.802;2022-11-23T07:28:06;5.70;99.90
7325;DHT22;3703;48.016;7.802;2022-11-23T07:30:56;5.70;99.90
7325;DHT22;3703;48.016;7.802;2022-11-23T07:59:04;10.30;99.90
7325;DHT22;3703;48.016;7.802;2022-11-23T08:01:52;10.60;99.90
7325;DHT22;3703;48.016;7.802;2022-11-23T08:04:41;11.10;99.90
7325;DHT22;3703;48.016;7.802;2022-11-23T08:07:29;11.70;99.90
7325;DHT22;3703;48.016;7.802;2022-11-23T08:10:16;12.40;99.90
7325;DHT22;3703;48.016;7.802;2022-11-23T08:13:05;12.40;99.90
7325;DHT22;3703;48.016;7.802;2022-11-23T08:15:53;12.80;99.90
7325;DHT22;3703;48.016;7.802;2022-11-23T08:18:40;12.70;99.90
7325;DHT22;3703;48.016;7.802;2022-11-23T08:21:29;12.10;99.90
7325;DHT22;3703;48.016;7.802;2022-11-23T08:24:17;11.60;99.90
7325;DHT22;3703;48.016;7.802;2022-11-23T08:27:04;12.10;99.90
7325;DHT22;3703;48.016;7.802;2022-11-23T08:29:52;12.50;99.90
7325;DHT22;3703;48.016;7.802;2022-11-23T08:32:40;12.50;99.90
7325;DHT22;3703;48.016;7.802;2022-11-23T08:35:27;12.80;99.90
7325;DHT22;3703;48.016;7.802;2022-11-23T08:38:19;13.20;99.90
7325;DHT22;3703;48.016;7.802;2022-11-23T08:41:07;14.40;99.90
7325;DHT22;3703;48.016;7.802;2022-11-23T08:44:00;13.50;99.90
7325;DHT22;3703;48.016;7.802;2022-11-23T08:46:47;13.50;99.90
7325;DHT22;3703;48.016;7.802;2022-11-23T08:49:35;14.00;99.90
7325;DHT22;3703;48.016;7.802;2022-11-23T08:52:23;14.70;99.90
7325;DHT22;3703;48.016;7.802;2022-11-23T08:55:12;15.50;99.90
7325;DHT22;3703;48.016;7.802;2022-11-23T08:58:00;15.90;99.90
7325;DHT22;3703;48.016;7.802;2022-11-23T09:00:55;15.90;99.90
7325;DHT22;3703;48.016;7.802;2022-11-23T09:03:44;14.80;99.90
7325;DHT22;3703;48.016;7.802;2022-11-23T09:06:32;14.10;99.90
7325;DHT22;3703;48.016;7.802;2022-11-23T09:09:20;14.10;99.90
7325;DHT22;3703;48.016;7.802;2022-11-23T09:12:09;14.70;99.90
7325;DHT22;3703;48.016;7.802;2022-11-23T09:14:57;14.80;99.90
7325;DHT22;3703;48.016;7.802;2022-11-23T09:17:45;14.70;99.90
7325;DHT22;3703;48.016;7.802;2022-11-23T09:20:35;14.50;99.90
7325;DHT22;3703;48.016;7.802;2022-11-23T09:23:22;14.80;99.90
7325;DHT22;3703;48.016;7.802;2022-11-23T09:26:11;14.50;99.90
7325;DHT22;3703;48.016;7.802;2022-11-23T09:29:01;14.90;99.90
7325;DHT22;3703;48.016;7.802;2022-11-23T09:31:49;15.10;99.90
7325;DHT22;3703;48.016;7.802;2022-11-23T09:34:37;15.60;99.90
7325;DHT22;3703;48.016;7.802;2022-11-23T09:37:25;15.40;99.90
7325;DHT22;3703;48.016;7.802;2022-11-23T09:40:14;15.50;99.90
7325;DHT22;3703;48.016;7.802;2022-11-23T09:46:35;16.00;99.90
7325;DHT22;3703;48.016;7.802;2022-11-23T09:49:30;15.60;99.90
7325;DHT22;3703;48.016;7.802;2022-11-23T09:52:23;16.40;99.90
7325;DHT22;3703;48.016;7.802;2022-11-23T09:55:17;15.90;99.90
7325;DHT22;3703;48.016;7.802;2022-11-23T09:58:14;16.10;99.90
7325;DHT22;3703;48.016;7.802;2022-11-23T10:01:10;16.80;99.90
7325;DHT22;3703;48.016;7.802;2022-11-23T10:04:00;16.70;99.90
7325;DHT22;3703;48.016;7.802;2022-11-23T10:06:52;15.60;99.90
7325;DHT22;3703;48.016;7.802;2022-11-23T10:09:52;15.60;99.90
7325;DHT22;3703;48.016;7.802;2022-11-23T10:12:51;15.30;99.90
7325;DHT22;3703;48.016;7.802;2022-11-23T10:16:02;16.40;99.90
7325;DHT22;3703;48.016;7.802;2022-11-23T10:19:10;17.40;99.90
7325;DHT22;3703;48.016;7.802;2022-11-23T10:22:08;17.70;99.90
7325;DHT22;3703;48.016;7.802;2022-11-23T10:25:00;17.90;99.90
7325;DHT22;3703;48.016;7.802;2022-11-23T10:28:00;17.30;99.90
7325;DHT22;3703;48.016;7.802;2022-11-23T10:31:03;16.80;99.90
7325;DHT22;3703;48.016;7.802;2022-11-23T10:34:09;16.60;99.90
7325;DHT22;3703;48.016;7.802;2022-11-23T10:36:58;16.30;99.90
7325;DHT22;3703;48.016;7.802;2022-11-23T10:39:51;16.70;99.90
7325;DHT22;3703;48.016;7.802;2022-11-23T10:42:42;16.90;99.90
7325;DHT22;3703;48.016;7.802;2022-11-23T10:45:32;16.90;99.90
7325;DHT22;3703;48.016;7.802;2022-11-23T10:48:33;17.00;99.90
7325;DHT22;3703;48.016;7.802;2022-11-23T10:51:27;17.60;99.90
7325;DHT22;3703;48.016;7.802;2022-11-23T10:54:21;18.20;99.90
7325;DHT22;3703;48.016;7.802;2022-11-23T10:57:21;17.60;99.70
7325;DHT22;3703;48.016;7.802;2022-11-23T11:00:17;16.30;99.90
7325;DHT22;3703;48.016;7.802;2022-11-23T11:03:22;17.10;99.90
7325;DHT22;3703;48.016;7.802;2022-11-23T11:06:10;17.30;99.30
7325;DHT22;3703;48.016;7.802;2022-11-23T11:09:20;17.30;99.20
7325;DHT22;3703;48.016;7.802;2022-11-23T11:12:15;17.30;99.30
7325;DHT22;3703;48.016;7.802;2022-11-23T11:15:16;18.00;99.90
7325;DHT22;3703;48.016;7.802;2022-11-23T11:18:26;19.00;99.90
7325;DHT22;3703;48.016;7.802;2022-11-23T11:21:20;18.60;97.20
7325;DHT22;3703;48.016;7.802;2022-11-23T11:24:17;18.70;97.40
7325;DHT22;3703;48.016;7.802;2022-11-23T11:27:12;18.60;97.60
7325;DHT22;3703;48.016;7.802;2022-11-23T11:30:05;18.90;98.30
7325;DHT22;3703;48.016;7.802;2022-11-23T11:32:59;19.10;95.30
7325;DHT22;3703;48.016;7.802;2022-11-23T11:36:00;18.90;97.10
7325;DHT22;3703;48.016;7.802;2022-11-23T11:38:51;18.60;93.70
7325;DHT22;3703;48.016;7.802;2022-11-23T11:41:41;18.90;96.40
7325;DHT22;3703;48.016;7.802;2022-11-23T11:44:31;18.00;93.40
7325;DHT22;3703;48.016;7.802;2022-11-23T11:47:29;17.60;94.50
7325;DHT22;3703;48.016;7.802;2022-11-23T11:50:21;17.70;92.30
7325;DHT22;3703;48.016;7.802;2022-11-23T11:53:14;17.20;93.10
7325;DHT22;3703;48.016;7.802;2022-11-23T11:56:11;17.10;92.00
7325;DHT22;3703;48.016;7.802;2022-11-23T11:59:12;15.90;90.20
7325;DHT22;3703;48.016;7.802;2022-11-23T12:02:23;16.40;92.60
7325;DHT22;3703;48.016;7.802;2022-11-23T12:05:16;16.50;91.50
7325;DHT22;3703;48.016;7.802;2022-11-23T12:08:14;15.90;92.50
7325;DHT22;3703;48.016;7.802;2022-11-23T12:11:05;16.10;91.20
7325;DHT22;3703;48.016;7.802;2022-11-23T12:14:12;15.80;92.50
7325;DHT22;3703;48.016;7.802;2022-11-23T12:17:05;15.70;91.50
7325;DHT22;3703;48.016;7.802;2022-11-23T12:20:03;15.90;92.30
7325;DHT22;3703;48.016;7.802;2022-11-23T12:23:08;15.70;91.10
7325;DHT22;3703;48.016;7.802;2022-11-23T12:26:18;15.60;92.40
7325;DHT22;3703;48.016;7.802;2022-11-23T12:29:35;16.20;91.40
7325;DHT22;3703;48.016;7.802;2022-11-23T12:32:54;16.10;90.00
7325;DHT22;3703;48.016;7.802;2022-11-23T12:36:49;16.00;91.20
7325;DHT22;3703;48.016;7.802;2022-11-23T12:40:44;15.60;90.80
7325;DHT22;3703;48.016;7.802;2022-11-23T12:44:13;15.30;91.50
7325;DHT22;3703;48.016;7.802;2022-11-23T12:47:28;15.80;93.30
7325;DHT22;3703;48.016;7.802;2022-11-23T12:50:25;16.50;91.30
7325;DHT22;3703;48.016;7.802;2022-11-23T12:53:31;16.10;91.40
7325;DHT22;3703;48.016;7.802;2022-11-23T12:57:00;15.60;90.90
7325;DHT22;3703;48.016;7.802;2022-11-23T12:59:59;14.50;91.60
7325;DHT22;3703;48.016;7.802;2022-11-23T13:10:56;15.80;93.70
7325;DHT22;3703;48.016;7.802;2022-11-23T13:14:07;16.50;93.70
7325;DHT22;3703;48.016;7.802;2022-11-23T13:17:23;16.20;92.20
7325;DHT22;3703;48.016;7.802;2022-11-23T13:20:40;15.70;91.90
7325;DHT22;3703;48.016;7.802;2022-11-23T13:23:37;14.70;91.80
7325;DHT22;3703;48.016;7.802;2022-11-23T13:26:27;14.60;92.80
7325;DHT22;3703;48.016;7.802;2022-11-23T13:32:55;14.70;93.70
7325;DHT22;3703;48.016;7.802;2022-11-23T13:35:54;14.40;94.00
7325;DHT22;3703;48.016;7.802;2022-11-23T13:38:44;14.50;94.10
7325;DHT22;3703;48.016;7.802;2022-11-23T13:41:57;14.30;94.50
7325;DHT22;3703;48.016;7.802;2022-11-23T13:44:47;13.80;95.40
7325;DHT22;3703;48.016;7.802;2022-11-23T13:48:16;13.40;96.30
7325;DHT22;3703;48.016;7.802;2022-11-23T13:51:05;13.50;96.40
7325;DHT22;3703;48.016;7.802;2022-11-23T13:53:57;13.50;96.50
7325;DHT22;3703;48.016;7.802;2022-11-23T13:56:56;13.40;96.80
7325;DHT22;3703;48.016;7.802;2022-11-23T13:59:47;13.50;96.40
7325;DHT22;3703;48.016;7.802;2022-11-23T14:02:34;13.40;97.10
7325;DHT22;3703;48.016;7.802;2022-11-23T14:05:54;13.40;97.60
7325;DHT22;3703;48.016;7.802;2022-11-23T14:08:43;13.50;97.70
7325;DHT22;3703;48.016;7.802;2022-11-23T14:11:38;13.30;98.10
7325;DHT22;3703;48.016;7.802;2022-11-23T14:14:44;13.20;97.90
7325;DHT22;3703;48.016;7.802;2022-11-23T14:18:05;13.20;98.70
7325;DHT22;3703;48.016;7.802;2022-11-23T14:46:24;12.90;99.90
7325;DHT22;3703;48.016;7.802;2022-11-23T14:50:03;12.70;99.90
7325;DHT22;3703;48.016;7.802;2022-11-23T15:01:52;12.40;99.90
7325;DHT22;3703;48.016;7.802;2022-11-23T15:04:57;12.30;99.90
7325;DHT22;3703;48.016;7.802;2022-11-23T15:12:39;12.10;99.90
7325;DHT22;3703;48.016;7.802;2022-11-23T15:16:02;12.10;99.90
7325;DHT22;3703;48.016;7.802;2022-11-23T15:23:42;11.80;99.90
7325;DHT22;3703;48.016;7.802;2022-11-23T15:27:44;11.80;99.90
7325;DHT22;3703;48.016;7.802;2022-11-23T15:49:17;11.70;99.90
7325;DHT22;3703;48.016;7.802;2022-11-23T15:53:04;11.80;99.90
7325;DHT22;3703;48.016;7.802;2022-11-23T15:56:20;12.00;99.90
7325;DHT22;3703;48.016;7.802;2022-11-23T16:03:46;11.60;99.90
7325;DHT22;3703;48.016;7.802;2022-11-23T16:06:40;11.60;99.90
7325;DHT22;3703;48.016;7.802;2022-11-23T16:09:36;11.50;99.90
7325;DHT22;3703;48.016;7.802;2022-11-23T16:12:27;10.90;99.90
7325;DHT22;3703;48.016;7.802;2022-11-23T16:15:40;11.50;99.90
7325;DHT22;3703;48.016;7.802;2022-11-23T16:18:29;11.40;99.90
7325;DHT22;3703;48.016;7.802;2022-11-23T16:21:26;11.30;99.90
7325;DHT22;3703;48.016;7.802;2022-11-23T16:24:31;11.10;99.90
7325;DHT22;3703;48.016;7.802;2022-11-23T16:30:35;10.80;99.90
7325;DHT22;3703;48.016;7.802;2022-11-23T16:33:24;10.70;99.90
7325;DHT22;3703;48.016;7.802;2022-11-23T16:36:15;10.70;99.90
7325;DHT22;3703;48.016;7.802;2022-11-23T16:39:22;11.10;99.90
7325;DHT22;3703;48.016;7.802;2022-11-23T16:45:27;11.10;99.90
7325;DHT22;3703;48.016;7.802;2022-11-23T16:48:44;11.10;99.90
7325;DHT22;3703;48.016;7.802;2022-11-23T16:57:34;11.00;99.90
7325;DHT22;3703;48.016;7.802;2022-11-23T17:00:22;10.40;99.90
7325;DHT22;3703;48.016;7.802;2022-11-23T17:03:11;10.20;99.90
7325;DHT22;3703;48.016;7.802;2022-11-23T17:06:06;10.10;99.90
7325;DHT22;3703;48.016;7.802;2022-11-23T17:28:39;9.50;99.90
7325;DHT22;3703;48.016;7.802;2022-11-23T17:34:15;9.60;99.90
7325;DHT22;3703;48.016;7.802;2022-11-23T17:37:04;9.60;99.90
7325;DHT22;3703;48.016;7.802;2022-11-23T17:45:29;9.60;99.90
7325;DHT22;3703;48.016;7.802;2022-11-23T17:56:40;9.60;99.90
7325;DHT22;3703;48.016;7.802;2022-11-23T18:02:17;9.70;99.90
7325;DHT22;3703;48.016;7.802;2022-11-23T18:05:05;9.60;99.90
7325;DHT22;3703;48.016;7.802;2022-11-23T18:16:18;9.70;99.90
7325;DHT22;3703;48.016;7.802;2022-11-23T18:19:07;9.50;99.90
7325;DHT22;3703;48.016;7.802;2022-11-23T18:24:43;9.60;99.90
7325;DHT22;3703;48.016;7.802;2022-11-23T18:35:56;9.60;99.90
7325;DHT22;3703;48.016;7.802;2022-11-23T18:49:56;9.50;99.90
7325;DHT22;3703;48.016;7.802;2022-11-23T18:52:45;9.60;99.90
7325;DHT22;3703;48.016;7.802;2022-11-23T18:55:33;9.50;99.90
7325;DHT22;3703;48.016;7.802;2022-11-23T19:01:11;9.50;99.90
7325;DHT22;3703;48.016;7.802;2022-11-23T19:03:59;9.70;99.90
7325;DHT22;3703;48.016;7.802;2022-11-23T19:09:36;9.50;99.90
7325;DHT22;3703;48.016;7.802;2022-11-23T19:18:00;9.10;99.90
7325;DHT22;3703;48.016;7.802;2022-11-23T19:26:26;9.30;99.90
7325;DHT22;3703;48.016;7.802;2022-11-23T19:32:04;9.00;99.90
7325;DHT22;3703;48.016;7.802;2022-11-23T19:37:40;9.30;99.90
7325;DHT22;3703;48.016;7.802;2022-11-23T19:43:17;9.20;99.90
7325;DHT22;3703;48.016;7.802;2022-11-23T19:46:06;9.30;99.90
7325;DHT22;3703;48.016;7.802;2022-11-23T20:00:13;9.40;99.90
7325;DHT22;3703;48.016;7.802;2022-11-23T20:03:03;9.30;99.90
7325;DHT22;3703;48.016;7.802;2022-11-23T20:05:55;9.40;99.90
7325;DHT22;3703;48.016;7.802;2022-11-23T20:08:43;9.50;99.90
7325;DHT22;3703;48.016;7.802;2022-11-23T20:11:32;9.20;99.90
7325;DHT22;3703;48.016;7.802;2022-11-23T20:14:20;9.00;99.90
7325;DHT22;3703;48.016;7.802;2022-11-23T20:17:09;9.30;99.90
7325;DHT22;3703;48.016;7.802;2022-11-23T20:19:57;9.30;99.90
7325;DHT22;3703;48.016;7.802;2022-11-23T20:22:45;9.40;99.90
7325;DHT22;3703;48.016;7.802;2022-11-23T20:25:34;9.10;99.90
7325;DHT22;3703;48.016;7.802;2022-11-23T20:28:22;9.20;99.90
7325;DHT22;3703;48.016;7.802;2022-11-23T20:31:14;9.20;99.90
7325;DHT22;3703;48.016;7.802;2022-11-23T20:34:04;9.30;99.90
7325;DHT22;3703;48.016;7.802;2022-11-23T20:36:51;9.40;99.90
7325;DHT22;3703;48.016;7.802;2022-11-23T20:39:39;9.50;99.90
7325;DHT22;3703;48.016;7.802;2022-11-23T20:42:27;9.40;99.90
7325;DHT22;3703;48.016;7.802;2022-11-23T20:45:15;9.40;99.90
7325;DHT22;3703;48.016;7.802;2022-11-23T20:48:03;9.40;99.90
7325;DHT22;3703;48.016;7.802;2022-11-23T20:50:54;9.30;99.90
7325;DHT22;3703;48.016;7.802;2022-11-23T20:53:41;9.30;99.90
7325;DHT22;3703;48.016;7.802;2022-11-23T20:56:29;9.40;99.90
7325;DHT22;3703;48.016;7.802;2022-11-23T20:59:17;9.40;99.90
7325;DHT22;3703;48.016;7.802;2022-11-23T21:02:07;9.40;99.90
7325;DHT22;3703;48.016;7.802;2022-11-23T21:04:55;9.40;99.90
7325;DHT22;3703;48.016;7.802;2022-11-23T21:07:46;9.40;99.90
7325;DHT22;3703;48.016;7.802;2022-11-23T21:10:34;9.40;99.90
7325;DHT22;3703;48.016;7.802;2022-11-23T21:13:39;9.40;99.90
7325;DHT22;3703;48.016;7.802;2022-11-23T21:16:45;9.30;99.90
7325;DHT22;3703;48.016;7.802;2022-11-23T21:19:38;9.50;99.90
7325;DHT22;3703;48.016;7.802;2022-11-23T21:22:26;9.30;99.90
7325;DHT22;3703;48.016;7.802;2022-11-23T21:25:15;9.40;99.90
7325;DHT22;3703;48.016;7.802;2022-11-23T21:28:02;9.40;99.90
7325;DHT22;3703;48.016;7.802;2022-11-23T21:30:50;9.40;99.90
7325;DHT22;3703;48.016;7.802;2022-11-23T21:33:38;9.40;99.90
7325;DHT22;3703;48.016;7.802;2022-11-23T21:36:25;9.40;99.90
7325;DHT22;3703;48.016;7.802;2022-11-23T21:39:14;9.40;99.90
7325;DHT22;3703;48.016;7.802;2022-11-23T21:42:03;9.40;99.90
7325;DHT22;3703;48.016;7.802;2022-11-23T21:44:51;9.40;99.90
7325;DHT22;3703;48.016;7.802;2022-11-23T21:47:39;9.40;99.90
7325;DHT22;3703;48.016;7.802;2022-11-23T21:50:26;9.40;99.90
7325;DHT22;3703;48.016;7.802;2022-11-23T21:53:14;9.40;99.90
7325;DHT22;3703;48.016;7.802;2022-11-23T21:56:03;9.40;99.90
7325;DHT22;3703;48.016;7.802;2022-11-23T21:58:54;9.40;99.90
7325;DHT22;3703;48.016;7.802;2022-11-23T22:01:42;9.30;99.90
7325;DHT22;3703;48.016;7.802;2022-11-23T22:04:30;9.30;99.90
7325;DHT22;3703;48.016;7.802;2022-11-23T22:07:18;9.30;99.90
7325;DHT22;3703;48.016;7.802;2022-11-23T22:10:06;9.20;99.90
7325;DHT22;3703;48.016;7.802;2022-11-23T22:12:54;9.20;99.90
7325;DHT22;3703;48.016;7.802;2022-11-23T22:15:43;9.00;99.90
7325;DHT22;3703;48.016;7.802;2022-11-23T22:18:31;8.90;99.90
7325;DHT22;3703;48.016;7.802;2022-11-23T22:21:20;8.80;99.90
7325;DHT22;3703;48.016;7.802;2022-11-23T22:24:11;8.80;99.90
7325;DHT22;3703;48.016;7.802;2022-11-23T22:26:59;8.80;99.90
7325;DHT22;3703;48.016;7.802;2022-11-23T22:29:46;8.40;99.90
7325;DHT22;3703;48.016;7.802;2022-11-23T22:32:36;8.10;99.90
7325;DHT22;3703;48.016;7.802;2022-11-23T22:35:24;8.80;99.90
7325;DHT22;3703;48.016;7.802;2022-11-23T22:38:11;8.70;99.90
7325;DHT22;3703;48.016;7.802;2022-11-23T22:41:00;8.70;99.90
7325;DHT22;3703;48.016;7.802;2022-11-23T22:43:48;8.70;99.90
7325;DHT22;3703;48.016;7.802;2022-11-23T22:46:36;8.70;99.90
7325;DHT22;3703;48.016;7.802;2022-11-23T22:49:26;8.70;99.90
7325;DHT22;3703;48.016;7.802;2022-11-23T22:52:13;8.80;99.90
7325;DHT22;3703;48.016;7.802;2022-11-23T22:55:01;8.80;99.90
7325;DHT22;3703;48.016;7.802;2022-11-23T22:57:49;8.80;99.90
7325;DHT22;3703;48.016;7.802;2022-11-23T23:00:37;8.80;99.90
7325;DHT22;3703;48.016;7.802;2022-11-23T23:03:24;8.80;99.90
7325;DHT22;3703;48.016;7.802;2022-11-23T23:06:16;8.80;99.90
7325;DHT22;3703;48.016;7.802;2022-11-23T23:09:05;9.60;99.90
7325;DHT22;3703;48.016;7.802;2022-11-23T23:11:54;8.90;99.90
7325;DHT22;3703;48.016;7.802;2022-11-23T23:14:41;9.00;99.90
7325;DHT22;3703;48.016;7.802;2022-11-23T23:17:29;9.00;99.90
7325;DHT22;3703;48.016;7.802;2022-11-23T23:20:17;9.00;99.90
7325;DHT22;3703;48.016;7.802;2022-11-23T23:23:06;9.00;99.90
7325;DHT22;3703;48.016;7.802;2022-11-23T23:25:54;9.00;99.90
7325;DHT22;3703;48.016;7.802;2022-11-23T23:28:42;9.00;99.90
7325;DHT22;3703;48.016;7.802;2022-11-23T23:31:30;9.00;99.90
7325;DHT22;3703;48.016;7.802;2022-11-23T23:34:18;9.00;99.90
7325;DHT22;3703;48.016;7.802;2022-11-23T23:37:06;9.00;99.90
7325;DHT22;3703;48.016;7.802;2022-11-23T23:39:55;9.10;99.90
7325;DHT22;3703;48.016;7.802;2022-11-23T23:42:42;9.10;99.90
7325;DHT22;3703;48.016;7.802;2022-11-23T23:45:30;9.10;99.90
7325;DHT22;3703;48.016;7.802;2022-11-23T23:48:17;9.10;99.90
7325;DHT22;3703;48.016;7.802;2022-11-23T23:51:06;9.10;99.90
7325;DHT22;3703;48.016;7.802;2022-11-23T23:53:56;9.00;99.90
7325;DHT22;3703;48.016;7.802;2022-11-23T23:56:45;9.00;99.90
7325;DHT22;3703;48.016;7.802;2022-11-23T23:59:32;9.00;99.90
